createdAt,value
2023-03-12T00:00:42.530Z,91.26
2023-03-12T00:01:24.974Z,91.72
2023-03-12T00:03:51.929Z,93.18
2023-03-12T00:05:42.531Z,93.18
2023-03-12T00:06:19.091Z,93.38
2023-03-12T00:08:45.539Z,93.44
2023-03-12T00:10:42.523Z,93.44
2023-03-12T00:11:15.624Z,94.24
2023-03-12T00:13:43.046Z,94.79
2023-03-12T00:15:42.581Z,94.79
2023-03-12T00:16:12.733Z,94.88
2023-03-12T00:18:39.517Z,95.36
2023-03-12T00:20:42.557Z,95.36
2023-03-12T00:21:07.134Z,94.76
2023-03-12T00:23:36.708Z,94.97
2023-03-12T00:25:46.658Z,94.97
2023-03-12T00:26:06.260Z,93.70
2023-03-12T00:28:33.456Z,93.98
2023-03-12T00:30:42.519Z,93.98
2023-03-12T00:30:59.895Z,93.62
2023-03-12T00:33:26.769Z,92.68
2023-03-12T00:35:42.585Z,92.68
2023-03-12T00:35:53.978Z,93.16
2023-03-12T00:38:22.836Z,92.74
2023-03-12T00:40:42.543Z,92.74
2023-03-12T00:40:49.300Z,92.64
2023-03-12T00:43:15.700Z,92.64
2023-03-12T00:45:42.129Z,91.60
2023-03-12T00:45:42.524Z,91.60
2023-03-12T00:48:08.663Z,91.81
2023-03-12T00:50:35.075Z,91.86
2023-03-12T00:50:42.511Z,91.86
2023-03-12T00:53:01.495Z,91.14
2023-03-12T00:55:27.972Z,90.26
2023-03-12T00:55:42.545Z,90.26
2023-03-12T00:57:54.348Z,89.81
2023-03-12T01:00:21.399Z,90.06
2023-03-12T01:00:42.529Z,90.06
2023-03-12T01:02:48.323Z,89.79
2023-03-12T01:05:15.018Z,89.54
2023-03-12T01:05:42.520Z,89.54
2023-03-12T01:07:41.604Z,89.52
2023-03-12T01:10:10.004Z,89.36
2023-03-12T01:10:42.499Z,89.36
2023-03-12T01:12:37.098Z,89.38
2023-03-12T01:15:07.060Z,88.64
2023-03-12T01:15:45.533Z,88.64
2023-03-12T01:17:33.404Z,89.63
2023-03-12T01:19:59.882Z,89.14
2023-03-12T01:20:42.526Z,89.14
2023-03-12T01:22:26.412Z,89.02
2023-03-12T01:24:52.777Z,89.11
2023-03-12T01:25:42.554Z,89.11
2023-03-12T01:27:20.387Z,88.76
2023-03-12T01:29:46.770Z,89.01
2023-03-12T01:30:42.624Z,89.01
2023-03-12T01:32:13.381Z,87.85
2023-03-12T01:34:39.819Z,87.69
2023-03-12T01:35:42.710Z,87.69
2023-03-12T01:37:07.670Z,86.97
2023-03-12T01:39:34.103Z,87.20
2023-03-12T01:40:42.610Z,87.20
2023-03-12T01:42:01.756Z,87.28
2023-03-12T01:44:29.270Z,87.02
2023-03-12T01:45:42.723Z,87.02
2023-03-12T01:46:55.741Z,87.74
2023-03-12T01:49:29.690Z,87.98
2023-03-12T01:50:42.657Z,87.98
2023-03-12T01:52:03.630Z,88.21
2023-03-12T01:54:51.334Z,89.06
2023-03-12T01:55:42.664Z,89.06
2023-03-12T01:57:57.741Z,89.24
2023-03-12T02:00:26.673Z,89.57
2023-03-12T02:00:42.758Z,89.57
2023-03-12T02:02:59.707Z,90.26
2023-03-12T02:05:38.090Z,90.33
2023-03-12T02:05:42.697Z,90.33
2023-03-12T02:08:05.082Z,90.58
2023-03-12T02:10:31.581Z,90.57
2023-03-12T02:10:42.704Z,90.57
2023-03-12T02:12:58.025Z,90.37
2023-03-12T02:15:24.526Z,90.92
2023-03-12T02:15:42.744Z,90.92
2023-03-12T02:17:51.198Z,90.68
2023-03-12T02:20:23.632Z,90.92
2023-03-12T02:20:42.770Z,90.92
2023-03-12T02:23:00.801Z,91.36
2023-03-12T02:25:37.122Z,90.92
2023-03-12T02:25:42.761Z,90.92
2023-03-12T02:28:06.915Z,91.10
2023-03-12T02:30:34.346Z,90.76
2023-03-12T02:30:42.839Z,90.76
2023-03-12T02:33:04.897Z,91.22
2023-03-12T02:35:31.566Z,91.51
2023-03-12T02:35:42.843Z,91.51
2023-03-12T02:37:58.148Z,91.62
2023-03-12T02:40:43.595Z,92.00
2023-03-12T02:40:43.859Z,92.00
2023-03-12T02:43:11.303Z,91.46
2023-03-12T02:45:38.918Z,91.15
2023-03-12T02:45:42.944Z,91.15
2023-03-12T02:48:08.794Z,91.38
2023-03-12T02:50:35.202Z,91.68
2023-03-12T02:50:42.906Z,91.68
2023-03-12T02:53:01.595Z,91.29
2023-03-12T02:55:28.037Z,91.74
2023-03-12T02:55:42.916Z,91.74
2023-03-12T02:57:54.441Z,91.84
2023-03-12T03:00:21.108Z,91.59
2023-03-12T03:00:42.893Z,91.59
2023-03-12T03:02:47.462Z,91.23
2023-03-12T03:05:13.831Z,91.55
2023-03-12T03:05:42.933Z,91.55
2023-03-12T03:07:40.315Z,92.02
2023-03-12T03:10:10.364Z,92.74
2023-03-12T03:10:42.979Z,92.74
2023-03-12T03:12:37.094Z,92.34
2023-03-12T03:15:05.207Z,92.42
2023-03-12T03:15:43.122Z,92.42
2023-03-12T03:17:31.765Z,92.02
2023-03-12T03:19:58.194Z,92.63
2023-03-12T03:20:43.013Z,92.63
2023-03-12T03:22:27.008Z,91.24
2023-03-12T03:24:54.293Z,90.99
2023-03-12T03:25:43.051Z,90.99
2023-03-12T03:27:20.931Z,90.99
2023-03-12T03:29:47.263Z,91.13
2023-03-12T03:30:43.139Z,91.13
2023-03-12T03:32:13.839Z,92.13
2023-03-12T03:34:40.526Z,91.38
2023-03-12T03:35:43.103Z,91.38
2023-03-12T03:37:06.937Z,90.91
2023-03-12T03:39:34.547Z,90.44
2023-03-12T03:40:43.087Z,90.44
2023-03-12T03:42:01.058Z,90.39
2023-03-12T03:44:27.427Z,90.14
2023-03-12T03:45:43.110Z,90.14
2023-03-12T03:46:55.477Z,90.26
2023-03-12T03:49:22.918Z,89.87
2023-03-12T03:50:43.148Z,89.87
2023-03-12T03:51:51.637Z,90.00
2023-03-12T03:58:09.110Z,89.85
2023-03-12T04:00:35.645Z,90.35
2023-03-12T04:00:43.160Z,90.35
2023-03-12T04:03:02.134Z,89.84
2023-03-12T04:05:28.532Z,90.13
2023-03-12T04:05:43.302Z,90.13
2023-03-12T04:07:55.846Z,89.62
2023-03-12T04:10:24.508Z,90.01
2023-03-12T04:10:43.196Z,90.01
2023-03-12T04:12:51.544Z,89.86
2023-03-12T04:15:18.112Z,90.29
2023-03-12T04:15:43.316Z,90.29
2023-03-12T04:17:44.620Z,90.33
2023-03-12T04:20:11.628Z,89.71
2023-03-12T04:20:43.262Z,89.71
2023-03-12T04:22:38.165Z,89.59
2023-03-12T04:25:08.494Z,89.66
2023-03-12T04:25:43.288Z,89.66
2023-03-12T04:27:35.165Z,89.05
2023-03-12T04:30:01.520Z,89.39
2023-03-12T04:30:43.274Z,89.39
2023-03-12T04:32:27.979Z,89.33
2023-03-12T04:34:54.516Z,88.81
2023-03-12T04:35:43.467Z,88.81
2023-03-12T04:37:32.867Z,87.72
2023-03-12T04:39:59.308Z,87.62
2023-03-12T04:40:43.378Z,87.62
2023-03-12T04:42:28.077Z,87.24
2023-03-12T04:44:54.574Z,87.28
2023-03-12T04:45:43.383Z,87.28
2023-03-12T04:47:20.968Z,87.15
2023-03-12T04:49:47.395Z,87.94
2023-03-12T04:50:43.410Z,87.94
2023-03-12T04:52:13.723Z,88.41
2023-03-12T04:54:40.152Z,89.00
2023-03-12T04:55:43.420Z,89.00
2023-03-12T04:57:06.507Z,89.15
2023-03-12T04:59:32.982Z,89.48
2023-03-12T05:00:43.467Z,89.48
2023-03-12T05:01:59.425Z,90.54
2023-03-12T05:04:25.804Z,91.22
2023-03-12T05:05:43.495Z,91.22
2023-03-12T05:06:52.281Z,91.38
2023-03-12T05:09:18.700Z,92.71
2023-03-12T05:10:43.517Z,92.71
2023-03-12T05:11:45.171Z,94.60
2023-03-12T05:14:12.350Z,95.56
2023-03-12T05:15:43.557Z,95.56
2023-03-12T05:16:39.075Z,97.04
2023-03-12T05:19:06.152Z,98.81
2023-03-12T05:20:43.600Z,98.81
2023-03-12T05:21:33.215Z,99.65
2023-03-12T05:23:59.934Z,100.00
2023-03-12T05:25:43.601Z,100.00
2023-03-12T05:26:29.185Z,100.00
2023-03-12T05:28:55.585Z,100.00
2023-03-12T05:30:43.634Z,100.00
2023-03-12T05:31:22.043Z,100.00
2023-03-12T05:33:49.830Z,100.00
2023-03-12T05:35:43.717Z,100.00
2023-03-12T05:36:18.306Z,100.00
2023-03-12T05:38:44.934Z,100.00
2023-03-12T05:40:43.667Z,100.00
2023-03-12T05:41:26.112Z,100.00
2023-03-12T05:43:54.042Z,100.00
2023-03-12T05:45:43.772Z,100.00
2023-03-12T05:46:21.156Z,100.00
2023-03-12T05:48:49.971Z,100.00
2023-03-12T05:50:43.702Z,100.00
2023-03-12T05:51:16.753Z,100.00
2023-03-12T05:53:43.442Z,100.00
2023-03-12T05:55:43.759Z,100.00
2023-03-12T05:56:13.840Z,100.00
2023-03-12T05:58:40.294Z,100.00
2023-03-12T06:00:43.729Z,100.00
2023-03-12T06:01:16.515Z,100.00
2023-03-12T06:03:43.148Z,100.00
2023-03-12T06:05:43.785Z,100.00
2023-03-12T06:06:10.650Z,100.00
2023-03-12T06:08:37.152Z,100.00
2023-03-12T06:10:43.809Z,100.00
2023-03-12T06:11:03.689Z,100.00
2023-03-12T06:13:30.498Z,100.00
2023-03-12T06:15:43.817Z,100.00
2023-03-12T06:16:04.409Z,100.00
2023-03-12T06:18:32.780Z,100.00
2023-03-12T06:20:43.819Z,100.00
2023-03-12T06:21:17.695Z,100.00
2023-03-12T06:23:45.136Z,100.00
2023-03-12T06:25:43.838Z,100.00
2023-03-12T06:26:12.660Z,100.00
2023-03-12T06:28:40.034Z,100.00
2023-03-12T06:30:43.855Z,100.00
2023-03-12T06:31:07.213Z,100.00
2023-03-12T06:33:34.393Z,100.00
2023-03-12T06:35:43.947Z,100.00
2023-03-12T06:36:02.740Z,100.00
2023-03-12T06:38:30.082Z,100.00
2023-03-12T06:40:43.902Z,100.00
2023-03-12T06:40:58.976Z,100.00
2023-03-12T06:43:27.929Z,100.00
2023-03-12T06:45:43.897Z,100.00
2023-03-12T06:45:57.280Z,100.00
2023-03-12T06:48:25.873Z,100.00
2023-03-12T06:50:43.943Z,100.00
2023-03-12T06:50:54.781Z,100.00
2023-03-12T06:53:21.953Z,100.00
2023-03-12T06:55:43.961Z,100.00
2023-03-12T06:55:50.808Z,100.00
2023-03-12T06:58:17.738Z,100.00
2023-03-12T07:00:44.605Z,100.00
2023-03-12T07:00:44.764Z,100.00
2023-03-12T07:03:11.144Z,100.00
2023-03-12T07:05:37.545Z,100.00
2023-03-12T07:05:43.981Z,100.00
2023-03-12T07:08:04.086Z,100.00
2023-03-12T07:10:30.653Z,100.00
2023-03-12T07:10:44.009Z,100.00
2023-03-12T07:12:57.159Z,100.00
2023-03-12T07:15:26.346Z,100.00
2023-03-12T07:15:44.204Z,100.00
2023-03-12T07:17:52.750Z,100.00
2023-03-12T07:20:19.362Z,100.00
2023-03-12T07:20:44.136Z,100.00
2023-03-12T07:22:45.880Z,100.00
2023-03-12T07:25:12.442Z,100.00
2023-03-12T07:25:44.110Z,100.00
2023-03-12T07:27:39.151Z,100.00
2023-03-12T07:30:06.181Z,100.00
2023-03-12T07:30:44.075Z,100.00
2023-03-12T07:32:33.483Z,100.00
2023-03-12T07:34:59.951Z,100.00
2023-03-12T07:35:44.160Z,100.00
2023-03-12T07:37:26.347Z,100.00
2023-03-12T07:39:54.661Z,100.00
2023-03-12T07:40:44.823Z,100.00
2023-03-12T07:42:21.188Z,100.00
2023-03-12T07:44:50.599Z,100.00
2023-03-12T07:45:44.416Z,100.00
2023-03-12T07:47:24.055Z,100.00
2023-03-12T07:49:51.770Z,100.00
2023-03-12T07:50:44.468Z,100.00
2023-03-12T07:52:20.185Z,100.00
2023-03-12T07:54:46.997Z,100.00
2023-03-12T07:55:44.411Z,100.00
2023-03-12T07:57:13.543Z,100.00
2023-03-12T07:59:40.056Z,100.00
2023-03-12T08:00:44.553Z,100.00
2023-03-12T08:02:06.922Z,100.00
2023-03-12T08:04:33.482Z,100.00
2023-03-12T08:05:44.241Z,100.00
2023-03-12T08:06:59.974Z,100.00
2023-03-12T08:09:26.419Z,100.00
2023-03-12T08:10:44.222Z,100.00
2023-03-12T08:11:52.901Z,100.00
2023-03-12T08:14:19.374Z,100.00
2023-03-12T08:15:44.245Z,100.00
2023-03-12T08:16:46.494Z,100.00
2023-03-12T08:19:12.967Z,100.00
2023-03-12T08:20:44.279Z,100.00
2023-03-12T08:21:39.530Z,100.00
2023-03-12T08:24:06.184Z,100.00
2023-03-12T08:25:44.322Z,100.00
2023-03-12T08:26:32.780Z,100.00
2023-03-12T08:29:00.316Z,100.00
2023-03-12T08:30:44.325Z,100.00
2023-03-12T08:31:29.943Z,100.00
2023-03-12T08:33:56.447Z,100.00
2023-03-12T08:35:44.403Z,100.00
2023-03-12T08:36:22.870Z,100.00
2023-03-12T08:38:49.319Z,100.00
2023-03-12T08:40:44.367Z,100.00
2023-03-12T08:41:15.828Z,100.00
2023-03-12T08:43:42.368Z,100.00
2023-03-12T08:45:44.397Z,100.00
2023-03-12T08:46:11.823Z,100.00
2023-03-12T08:48:39.384Z,100.00
2023-03-12T08:50:44.373Z,100.00
2023-03-12T08:51:07.394Z,100.00
2023-03-12T08:53:35.691Z,100.00
2023-03-12T08:55:44.321Z,100.00
2023-03-12T08:56:03.574Z,100.00
2023-03-12T08:58:30.578Z,100.00
2023-03-12T09:00:44.386Z,100.00
2023-03-12T09:00:57.761Z,100.00
2023-03-12T09:03:25.077Z,100.00
2023-03-12T09:05:44.368Z,100.00
2023-03-12T09:06:02.801Z,100.00
2023-03-12T09:08:29.440Z,100.00
2023-03-12T09:10:44.375Z,100.00
2023-03-12T09:10:55.764Z,100.00
2023-03-12T09:13:22.176Z,100.00
2023-03-12T09:15:44.360Z,100.00
2023-03-12T09:15:48.753Z,100.00
2023-03-12T09:18:15.227Z,100.00
2023-03-12T09:20:43.056Z,100.00
2023-03-12T09:20:44.317Z,100.00
2023-03-12T09:23:09.546Z,100.00
2023-03-12T09:25:35.982Z,100.00
2023-03-12T09:25:44.320Z,100.00
2023-03-12T09:28:02.477Z,100.00
2023-03-12T09:30:30.267Z,100.00
2023-03-12T09:30:44.346Z,100.00
2023-03-12T09:32:56.831Z,100.00
2023-03-12T09:35:23.282Z,100.00
2023-03-12T09:35:44.343Z,100.00
2023-03-12T09:37:50.172Z,100.00
2023-03-12T09:40:20.632Z,100.00
2023-03-12T09:40:44.302Z,100.00
2023-03-12T09:42:52.484Z,100.00
2023-03-12T09:45:26.571Z,100.00
2023-03-12T09:45:44.340Z,100.00
2023-03-12T09:47:55.659Z,100.00
2023-03-12T09:50:39.922Z,100.00
2023-03-12T09:50:44.306Z,100.00
2023-03-12T09:53:18.226Z,100.00
2023-03-12T09:55:48.924Z,100.00
2023-03-12T09:55:49.073Z,100.00
2023-03-12T09:58:24.360Z,100.00
2023-03-12T10:00:47.120Z,100.00
2023-03-12T10:00:54.990Z,100.00
2023-03-12T10:03:41.304Z,100.00
2023-03-12T10:05:44.314Z,100.00
2023-03-12T10:06:42.303Z,100.00
2023-03-12T10:09:30.350Z,100.00
2023-03-12T10:10:44.313Z,100.00
2023-03-12T10:12:03.124Z,100.00
2023-03-12T10:14:49.715Z,100.00
2023-03-12T10:15:44.488Z,100.00
2023-03-12T10:17:27.892Z,100.00
2023-03-12T10:20:28.558Z,100.00
2023-03-12T10:20:44.312Z,100.00
2023-03-12T10:23:08.606Z,100.00
2023-03-12T10:25:57.965Z,100.00
2023-03-12T10:25:58.128Z,100.00
2023-03-12T10:28:40.524Z,100.00
2023-03-12T10:30:44.330Z,100.00
2023-03-12T10:31:16.381Z,100.00
2023-03-12T10:33:47.716Z,100.00
2023-03-12T10:35:44.360Z,100.00
2023-03-12T10:36:28.459Z,100.00
2023-03-12T10:38:57.274Z,100.00
2023-03-12T10:40:44.301Z,100.00
2023-03-12T10:41:28.782Z,100.00
2023-03-12T10:44:00.131Z,100.00
2023-03-12T10:45:44.315Z,100.00
2023-03-12T10:46:41.568Z,100.00
2023-03-12T10:49:24.986Z,100.00
2023-03-12T10:50:44.337Z,100.00
2023-03-12T10:52:02.176Z,100.00
2023-03-12T10:54:49.407Z,100.00
2023-03-12T10:55:44.299Z,100.00
2023-03-12T10:57:16.608Z,100.00
2023-03-12T10:59:47.686Z,100.00
2023-03-12T11:00:44.322Z,100.00
2023-03-12T11:02:37.798Z,100.00
2023-03-12T11:05:38.970Z,100.00
2023-03-12T11:05:44.379Z,100.00
2023-03-12T11:08:23.795Z,100.00
2023-03-12T11:10:44.308Z,100.00
2023-03-12T11:10:50.254Z,100.00
2023-03-12T11:13:36.297Z,100.00
2023-03-12T11:15:44.356Z,100.00
2023-03-12T11:16:25.102Z,100.00
2023-03-12T11:19:03.867Z,100.00
2023-03-12T11:20:44.324Z,100.00
2023-03-12T11:21:40.149Z,100.00
2023-03-12T11:24:12.075Z,100.00
2023-03-12T11:25:44.346Z,100.00
2023-03-12T11:27:27.196Z,100.00
2023-03-12T11:29:54.447Z,100.00
2023-03-12T11:30:44.408Z,100.00
2023-03-12T11:32:46.977Z,100.00
2023-03-12T11:35:17.334Z,100.00
2023-03-12T11:35:44.403Z,100.00
2023-03-12T11:38:00.935Z,100.00
2023-03-12T11:41:09.091Z,100.00
2023-03-12T11:41:09.342Z,100.00
2023-03-12T11:43:47.861Z,100.00
2023-03-12T11:45:44.316Z,100.00
2023-03-12T11:46:36.930Z,100.00
2023-03-12T11:49:21.941Z,100.00
2023-03-12T11:50:44.370Z,100.00
2023-03-12T11:52:06.487Z,100.00
2023-03-12T11:55:01.927Z,100.00
2023-03-12T11:55:44.343Z,100.00
2023-03-12T11:58:03.784Z,100.00
2023-03-12T12:00:55.146Z,100.00
2023-03-12T12:00:55.329Z,100.00
2023-03-12T12:03:36.855Z,100.00
2023-03-12T12:05:44.330Z,100.00
2023-03-12T12:06:11.088Z,100.00
2023-03-12T12:08:58.876Z,100.00
2023-03-12T12:10:44.379Z,100.00
2023-03-12T12:11:34.088Z,100.00
2023-03-12T12:14:34.908Z,100.00
2023-03-12T12:15:44.348Z,100.00
2023-03-12T12:17:40.322Z,100.00
2023-03-12T12:20:34.459Z,100.00
2023-03-12T12:20:44.420Z,100.00
2023-03-12T12:23:03.820Z,100.00
2023-03-12T12:25:57.417Z,100.00
2023-03-12T12:25:57.585Z,100.00
2023-03-12T12:28:23.856Z,100.00
2023-03-12T12:30:44.314Z,100.00
2023-03-12T12:31:14.614Z,100.00
2023-03-12T12:34:02.791Z,100.00
2023-03-12T12:35:44.523Z,100.00
2023-03-12T12:36:33.665Z,100.00
2023-03-12T12:39:13.172Z,100.00
2023-03-12T12:40:44.336Z,100.00
2023-03-12T12:41:45.441Z,100.00
2023-03-12T12:44:17.690Z,100.00
2023-03-12T12:45:44.430Z,100.00
2023-03-12T12:46:49.577Z,100.00
2023-03-12T12:49:41.547Z,100.00
2023-03-12T12:50:44.383Z,100.00
2023-03-12T12:52:12.351Z,100.00
2023-03-12T12:54:57.042Z,100.00
2023-03-12T12:55:44.338Z,100.00
2023-03-12T12:57:29.327Z,100.00
2023-03-12T12:59:58.973Z,100.00
2023-03-12T13:00:44.400Z,100.00
2023-03-12T13:02:30.022Z,100.00
2023-03-12T13:04:58.424Z,100.00
2023-03-12T13:05:44.349Z,100.00
2023-03-12T13:07:27.600Z,100.00
2023-03-12T13:09:56.841Z,100.00
2023-03-12T13:10:53.372Z,100.00
2023-03-12T13:12:34.879Z,100.00
2023-03-12T13:15:22.348Z,100.00
2023-03-12T13:15:44.410Z,100.00
2023-03-12T13:17:51.434Z,100.00
2023-03-12T13:20:20.772Z,100.00
2023-03-12T13:20:44.415Z,100.00
2023-03-12T13:23:25.536Z,100.00
2023-03-12T13:25:44.344Z,100.00
2023-03-12T13:26:04.897Z,100.00
2023-03-12T13:29:06.078Z,100.00
2023-03-12T13:30:44.429Z,100.00
2023-03-12T13:31:37.573Z,100.00
2023-03-12T13:34:08.175Z,100.00
2023-03-12T13:35:44.365Z,100.00
2023-03-12T13:36:37.501Z,100.00
2023-03-12T13:39:07.018Z,100.00
2023-03-12T13:40:44.409Z,100.00
2023-03-12T13:41:54.901Z,100.00
2023-03-12T13:44:27.583Z,100.00
2023-03-12T13:45:44.373Z,100.00
2023-03-12T13:47:04.785Z,100.00
2023-03-12T13:49:36.905Z,100.00
2023-03-12T13:50:44.358Z,100.00
2023-03-12T13:52:24.328Z,100.00
2023-03-12T13:55:34.170Z,100.00
2023-03-12T13:55:44.425Z,100.00
2023-03-12T13:58:08.526Z,100.00
2023-03-12T14:00:44.755Z,100.00
2023-03-12T14:00:44.980Z,100.00
2023-03-12T14:03:29.827Z,100.00
2023-03-12T14:05:44.364Z,100.00
2023-03-12T14:06:05.404Z,100.00
2023-03-12T14:08:47.157Z,100.00
2023-03-12T14:10:44.372Z,100.00
2023-03-12T14:11:16.604Z,100.00
2023-03-12T14:14:04.370Z,100.00
2023-03-12T14:15:44.405Z,100.00
2023-03-12T14:16:34.246Z,100.00
2023-03-12T14:19:04.041Z,100.00
2023-03-12T14:20:44.385Z,100.00
2023-03-12T14:21:35.662Z,100.00
2023-03-12T14:24:04.804Z,100.00
2023-03-12T14:25:44.406Z,100.00
2023-03-12T14:26:36.789Z,100.00
2023-03-12T14:29:23.761Z,100.00
2023-03-12T14:30:44.383Z,100.00
2023-03-12T14:31:55.112Z,100.00
2023-03-12T14:34:24.316Z,100.00
2023-03-12T14:35:44.448Z,100.00
2023-03-12T14:37:12.784Z,100.00
2023-03-12T14:40:00.755Z,100.00
2023-03-12T14:40:44.380Z,100.00
2023-03-12T14:42:34.489Z,100.00
2023-03-12T14:45:18.212Z,100.00
2023-03-12T14:45:44.378Z,100.00
2023-03-12T14:47:48.186Z,98.15
2023-03-12T14:50:21.108Z,97.01
2023-03-12T14:50:44.422Z,97.01
2023-03-12T14:52:47.736Z,95.70
2023-03-12T14:55:23.014Z,95.74
2023-03-12T14:55:44.428Z,95.74
2023-03-12T14:58:02.301Z,95.12
2023-03-12T15:00:28.780Z,96.03
2023-03-12T15:00:44.373Z,96.03
2023-03-12T15:02:58.924Z,92.74
2023-03-12T15:05:26.630Z,89.85
2023-03-12T15:05:44.354Z,89.85
2023-03-12T15:08:00.884Z,89.10
2023-03-12T15:10:29.203Z,88.53
2023-03-12T15:10:44.440Z,88.53
2023-03-12T15:13:00.444Z,87.48
2023-03-12T15:15:39.606Z,87.41
2023-03-12T15:15:44.464Z,87.41
2023-03-12T15:18:09.005Z,89.12
2023-03-12T15:20:35.758Z,88.37
2023-03-12T15:20:44.393Z,88.37
2023-03-12T15:23:04.434Z,89.35
2023-03-12T15:25:33.670Z,87.60
2023-03-12T15:25:45.426Z,87.60
2023-03-12T15:28:10.214Z,84.33
2023-03-12T15:30:39.097Z,83.65
2023-03-12T15:30:44.610Z,83.65
2023-03-12T15:33:08.900Z,81.22
2023-03-12T15:35:57.297Z,80.71
2023-03-12T15:35:57.846Z,80.71
2023-03-12T15:38:24.739Z,82.02
2023-03-12T15:40:44.354Z,82.02
2023-03-12T15:40:56.020Z,81.59
2023-03-12T15:43:24.622Z,81.24
2023-03-12T15:45:44.717Z,81.24
2023-03-12T15:46:02.987Z,81.73
2023-03-12T15:48:39.745Z,80.32
2023-03-12T15:50:44.369Z,80.32
2023-03-12T15:51:35.789Z,82.29
2023-03-12T15:54:23.804Z,81.62
2023-03-12T15:55:44.375Z,81.62
2023-03-12T15:56:50.324Z,83.07
2023-03-12T15:59:16.720Z,82.02
2023-03-12T16:00:44.507Z,82.02
2023-03-12T16:01:49.224Z,82.88
2023-03-12T16:04:15.881Z,82.24
2023-03-12T16:05:44.373Z,82.24
2023-03-12T16:06:46.939Z,82.32
2023-03-12T16:09:20.003Z,81.25
2023-03-12T16:10:44.433Z,81.25
2023-03-12T16:11:47.753Z,81.11
2023-03-12T16:14:19.248Z,80.16
2023-03-12T16:15:46.236Z,80.16
2023-03-12T16:16:46.699Z,80.33
2023-03-12T16:19:18.693Z,80.16
2023-03-12T16:20:44.606Z,80.16
2023-03-12T16:21:45.676Z,79.75
2023-03-12T16:24:13.106Z,79.78
2023-03-12T16:25:44.402Z,79.78
2023-03-12T16:26:49.310Z,79.77
2023-03-12T16:29:18.206Z,79.60
2023-03-12T16:30:44.377Z,79.60
2023-03-12T16:31:45.294Z,80.00
2023-03-12T16:34:12.626Z,80.70
2023-03-12T16:35:44.462Z,80.70
2023-03-12T16:36:39.238Z,81.74
2023-03-12T16:39:05.861Z,82.27
2023-03-12T16:40:44.419Z,82.27
2023-03-12T16:41:32.459Z,81.84
2023-03-12T16:44:00.479Z,82.13
2023-03-12T16:45:44.479Z,82.13
2023-03-12T16:46:31.467Z,82.83
2023-03-12T16:48:59.612Z,82.94
2023-03-12T16:50:44.404Z,82.94
2023-03-12T16:51:28.290Z,82.96
2023-03-12T16:54:07.465Z,83.83
2023-03-12T16:55:44.368Z,83.83
2023-03-12T16:56:37.306Z,84.62
2023-03-12T16:59:06.797Z,84.50
2023-03-12T17:00:44.392Z,84.50
2023-03-12T17:01:33.305Z,84.63
2023-03-12T17:04:00.002Z,86.20
2023-03-12T17:05:44.377Z,86.20
2023-03-12T17:06:26.991Z,87.61
2023-03-12T17:08:54.390Z,88.21
2023-03-12T17:10:44.393Z,88.21
2023-03-12T17:11:29.008Z,88.67
2023-03-12T17:13:58.719Z,90.05
2023-03-12T17:15:44.421Z,90.05
2023-03-12T17:16:25.648Z,89.86
2023-03-12T17:18:52.219Z,90.65
2023-03-12T17:20:44.392Z,90.65
2023-03-12T17:21:19.299Z,92.26
2023-03-12T17:23:47.653Z,93.03
2023-03-12T17:25:44.391Z,93.03
2023-03-12T17:26:14.038Z,93.38
2023-03-12T17:28:40.453Z,93.75
2023-03-12T17:30:44.447Z,93.75
2023-03-12T17:31:07.178Z,94.35
2023-03-12T17:33:33.792Z,94.89
2023-03-12T17:35:44.527Z,94.89
2023-03-12T17:36:06.962Z,94.99
2023-03-12T17:38:33.356Z,95.68
2023-03-12T17:40:44.402Z,95.68
2023-03-12T17:41:00.591Z,95.26
2023-03-12T17:43:27.858Z,95.08
2023-03-12T17:45:44.427Z,95.08
2023-03-12T17:45:54.517Z,95.61
2023-03-12T17:48:23.372Z,95.40
2023-03-12T17:50:44.398Z,95.40
2023-03-12T17:50:49.922Z,96.43
2023-03-12T17:53:16.652Z,95.68
2023-03-12T17:55:43.155Z,94.93
2023-03-12T17:55:44.424Z,94.93
2023-03-12T17:58:09.560Z,96.15
2023-03-12T18:00:36.089Z,96.61
2023-03-12T18:00:44.395Z,96.61
2023-03-12T18:03:03.509Z,97.11
2023-03-12T18:05:30.077Z,97.47
2023-03-12T18:05:44.397Z,97.47
2023-03-12T18:07:56.490Z,97.29
2023-03-12T18:10:22.885Z,97.43
2023-03-12T18:10:44.438Z,97.43
2023-03-12T18:12:49.341Z,97.42
2023-03-12T18:15:18.292Z,97.99
2023-03-12T18:15:44.454Z,97.99
2023-03-12T18:17:45.030Z,98.74
2023-03-12T18:20:16.682Z,99.63
2023-03-12T18:20:46.397Z,99.63
2023-03-12T18:22:47.122Z,100.00
2023-03-12T18:25:31.150Z,100.00
2023-03-12T18:25:44.433Z,100.00
2023-03-12T18:28:05.046Z,100.00
2023-03-12T18:30:47.095Z,100.00
2023-03-12T18:30:47.285Z,100.00
2023-03-12T18:33:14.123Z,100.00
2023-03-12T18:35:40.620Z,100.00
2023-03-12T18:35:44.545Z,100.00
2023-03-12T18:38:07.075Z,100.00
2023-03-12T18:40:33.533Z,100.00
2023-03-12T18:40:44.413Z,100.00
2023-03-12T18:43:00.282Z,100.00
2023-03-12T18:45:27.472Z,100.00
2023-03-12T18:45:44.451Z,100.00
2023-03-12T18:47:54.048Z,100.00
2023-03-12T18:50:21.643Z,100.00
2023-03-12T18:50:44.421Z,100.00
2023-03-12T18:52:48.090Z,100.00
2023-03-12T18:55:17.766Z,100.00
2023-03-12T18:55:44.431Z,100.00
2023-03-12T18:57:46.164Z,100.00
2023-03-12T19:00:15.207Z,100.00
2023-03-12T19:00:44.425Z,100.00
2023-03-12T19:02:42.713Z,100.00
2023-03-12T19:05:12.852Z,100.00
2023-03-12T19:05:44.418Z,100.00
2023-03-12T19:07:40.449Z,100.00
2023-03-12T19:10:08.434Z,100.00
2023-03-12T19:10:44.416Z,100.00
2023-03-12T19:12:42.368Z,100.00
2023-03-12T19:15:15.560Z,100.00
2023-03-12T19:15:44.491Z,100.00
2023-03-12T19:17:41.961Z,100.00
2023-03-12T19:20:09.607Z,100.00
2023-03-12T19:20:44.435Z,100.00
2023-03-12T19:22:36.118Z,100.00
2023-03-12T19:25:02.473Z,100.00
2023-03-12T19:25:44.410Z,100.00
2023-03-12T19:27:29.774Z,100.00
2023-03-12T19:29:56.156Z,100.00
2023-03-12T19:30:44.415Z,100.00
2023-03-12T19:32:25.381Z,100.00
2023-03-12T19:34:54.195Z,100.00
2023-03-12T19:35:44.439Z,100.00
2023-03-12T19:37:22.086Z,100.00
2023-03-12T19:39:48.546Z,100.00
2023-03-12T19:40:44.422Z,100.00
2023-03-12T19:42:15.039Z,100.00
2023-03-12T19:44:43.046Z,100.00
2023-03-12T19:45:44.483Z,100.00
2023-03-12T19:47:12.757Z,100.00
2023-03-12T19:49:41.176Z,100.00
2023-03-12T19:50:44.444Z,100.00
2023-03-12T19:52:07.842Z,100.00
2023-03-12T19:54:34.216Z,100.00
2023-03-12T19:55:44.420Z,100.00
2023-03-12T19:57:00.857Z,100.00
2023-03-12T19:59:27.281Z,100.00
2023-03-12T20:00:44.424Z,100.00
2023-03-12T20:01:54.006Z,100.00
2023-03-12T20:04:20.425Z,100.00
2023-03-12T20:05:44.467Z,100.00
2023-03-12T20:06:47.561Z,100.00
2023-03-12T20:09:13.995Z,100.00
2023-03-12T20:10:44.445Z,100.00
2023-03-12T20:11:41.113Z,100.00
2023-03-12T20:14:07.724Z,100.00
2023-03-12T20:15:44.453Z,100.00
2023-03-12T20:16:37.177Z,100.00
2023-03-12T20:19:03.936Z,100.00
2023-03-12T20:20:44.445Z,100.00
2023-03-12T20:21:30.837Z,100.00
2023-03-12T20:23:57.416Z,100.00
2023-03-12T20:25:44.461Z,100.00
2023-03-12T20:26:23.829Z,100.00
2023-03-12T20:28:50.440Z,100.00
2023-03-12T20:30:44.451Z,100.00
2023-03-12T20:31:17.492Z,100.00
2023-03-12T20:33:43.983Z,100.00
2023-03-12T20:35:44.442Z,100.00
2023-03-12T20:36:12.880Z,100.00
2023-03-12T20:38:41.301Z,100.00
2023-03-12T20:40:44.413Z,100.00
2023-03-12T20:41:14.415Z,100.00
2023-03-12T20:43:44.620Z,100.00
2023-03-12T20:45:44.461Z,100.00
2023-03-12T20:46:12.242Z,100.00
2023-03-12T20:48:38.782Z,100.00
2023-03-12T20:50:44.450Z,100.00
2023-03-12T20:51:05.521Z,100.00
2023-03-12T20:53:31.894Z,100.00
2023-03-12T20:55:44.426Z,100.00
2023-03-12T20:55:58.642Z,100.00
2023-03-12T20:58:27.775Z,100.00
2023-03-12T21:00:44.470Z,100.00
2023-03-12T21:00:54.251Z,100.00
2023-03-12T21:03:20.973Z,100.00
2023-03-12T21:05:44.429Z,100.00
2023-03-12T21:05:55.612Z,100.00
2023-03-12T21:08:23.147Z,100.00
2023-03-12T21:10:44.420Z,100.00
2023-03-12T21:10:52.157Z,100.00
2023-03-12T21:13:20.497Z,100.00
2023-03-12T21:15:44.440Z,100.00